Time;durP1;ratioP1;P1;durP2;ratioP2;P2;SDS_P1;SDS_P2;PMS_P1;PMS_P2;Temp;Humidity;BMP_temperature;BMP_pressure;BME280_temperature;BME280_humidity;BME280_pressure;Samples;Min_cycle;Max_cycle;Signal;HPM_P1;HPM_P2
2022/06/01 00:01:58;;;;;;;;;;;;;;;16.09;100.00;98657.28;5030046;28;20270;-40
2022/06/01 00:04:23;;;;;;;;;;;;;;;15.79;100.00;98653.00;5029436;28;20797;-41
2022/06/01 00:06:49;;;;;;;;;;;;;;;15.59;100.00;98651.53;5032007;28;20289;-41
2022/06/01 00:09:14;;;;;;;;;;;;;;;16.19;100.00;98645.41;5030105;28;20388;-40
2022/06/01 00:11:39;;;;;;;;;;;;;;;15.57;100.00;98644.75;5027811;28;19931;-41
2022/06/01 00:14:05;;;;;;;;;;;;;;;15.72;100.00;98645.66;5030357;28;19921;-40
2022/06/01 00:16:31;;;;;;;;;;;;;;;16.31;100.00;98639.47;5011174;28;19980;-41
2022/06/01 00:18:56;;;;;;;;;;;;;;;16.31;100.00;98638.63;5031601;28;19921;-40
2022/06/01 00:21:22;;;;;;;;;;;;;;;16.44;100.00;98644.72;5029593;28;19920;-40
2022/06/01 00:23:48;;;;;;;;;;;;;;;16.69;100.00;98641.47;5031694;28;19940;-40
2022/06/01 00:26:13;;;;;;;;;;;;;;;15.32;100.00;98647.94;5028430;28;19921;-40
2022/06/01 00:28:38;;;;;;;;;;;;;;;15.54;100.00;98650.13;5029666;28;20381;-40
2022/06/01 00:31:03;;;;;;;;;;;;;;;15.76;100.00;98637.59;5028884;28;19959;-40
2022/06/01 00:33:29;;;;;;;;;;;;;;;15.35;100.00;98648.59;5025494;28;19920;-40
2022/06/01 00:35:54;;;;;;;;;;;;;;;16.49;100.00;98652.28;5030103;28;20008;-41
2022/06/01 00:38:19;;;;;;;;;;;;;;;16.02;100.00;98637.81;5028104;28;19921;-40
2022/06/01 00:40:44;;;;;;;;;;;;;;;16.41;100.00;98642.34;5027930;28;20001;-40
2022/06/01 00:43:23;;;;;;;;;;;;;;;16.55;100.00;98641.47;5027975;28;19920;-40
2022/06/01 00:45:48;;;;;;;;;;;;;;;16.20;100.00;98631.50;5028686;28;19927;-40
2022/06/01 00:48:14;;;;;;;;;;;;;;;16.34;100.00;98637.63;5026304;28;19924;-40
2022/06/01 00:50:39;;;;;;;;;;;;;;;15.44;100.00;98636.84;5028808;28;19921;-40
2022/06/01 00:53:04;;;;;;;;;;;;;;;15.91;100.00;98598.66;5027817;28;19921;-40
2022/06/01 00:55:34;;;;;;;;;;;;;;;15.20;100.00;98618.34;5030568;28;20689;-42
2022/06/01 00:58:01;;;;;;;;;;;;;;;16.22;100.00;98645.22;5010609;28;19964;-40
2022/06/01 01:00:27;;;;;;;;;;;;;;;16.69;100.00;98643.22;5025785;28;19921;-40
2022/06/01 01:02:54;;;;;;;;;;;;;;;16.03;100.00;98639.47;5026495;28;19921;-40
2022/06/01 01:05:19;;;;;;;;;;;;;;;16.05;100.00;98642.81;5007699;28;19921;-40
2022/06/01 01:07:44;;;;;;;;;;;;;;;15.53;100.00;98638.91;5028927;28;19923;-40
2022/06/01 01:10:11;;;;;;;;;;;;;;;15.85;100.00;98639.66;5026905;28;19920;-40
2022/06/01 01:15:20;;;;;;;;;;;;;;;17.17;100.00;98632.41;5014312;28;19935;-40
2022/06/01 01:17:46;;;;;;;;;;;;;;;17.37;100.00;98624.13;5010118;28;20399;-40
2022/06/01 01:20:12;;;;;;;;;;;;;;;16.76;100.00;98634.09;5028055;28;19920;-40
2022/06/01 01:22:39;;;;;;;;;;;;;;;16.56;100.00;98626.69;5029242;28;19921;-40
2022/06/01 01:25:17;;;;;;;;;;;;;;;16.73;100.00;98622.13;5027204;28;20020;-40
2022/06/01 01:27:43;;;;;;;;;;;;;;;16.80;100.00;98626.97;5027377;28;19920;-40
2022/06/01 01:30:28;;;;;;;;;;;;;;;17.09;100.00;98620.72;5025409;28;19948;-40
2022/06/01 01:32:53;;;;;;;;;;;;;;;17.13;100.00;98617.00;5005888;28;19929;-40
2022/06/01 01:35:19;;;;;;;;;;;;;;;17.06;100.00;98618.34;5028589;28;19975;-40
2022/06/01 01:37:44;;;;;;;;;;;;;;;16.61;100.00;98622.91;5026109;28;19924;-40
2022/06/01 01:40:10;;;;;;;;;;;;;;;16.90;100.00;98620.22;5010996;28;20044;-40
2022/06/01 01:42:35;;;;;;;;;;;;;;;16.73;100.00;98616.91;5029489;28;20047;-40
2022/06/01 01:45:18;;;;;;;;;;;;;;;16.21;100.00;98617.56;5027720;28;19966;-40
2022/06/01 01:47:44;;;;;;;;;;;;;;;16.07;100.00;98620.16;5029135;28;20341;-40
2022/06/01 01:50:09;;;;;;;;;;;;;;;16.40;100.00;98624.22;5025190;28;19998;-40
2022/06/01 01:52:34;;;;;;;;;;;;;;;15.82;100.00;98626.00;5027394;28;20028;-40
2022/06/01 01:55:02;;;;;;;;;;;;;;;16.23;100.00;98631.28;5012266;28;19924;-40
2022/06/01 01:57:35;;;;;;;;;;;;;;;16.05;100.00;98622.03;5011275;28;20004;-40
2022/06/01 02:00:06;;;;;;;;;;;;;;;15.78;100.00;98617.59;5008923;28;19960;-40
2022/06/01 02:02:50;;;;;;;;;;;;;;;15.56;100.00;98637.91;5026206;28;19921;-40
2022/06/01 02:08:04;;;;;;;;;;;;;;;15.70;100.00;98630.13;5029107;28;19924;-40
2022/06/01 02:13:13;;;;;;;;;;;;;;;16.03;100.00;98618.69;5029020;28;20305;-40
2022/06/01 02:15:39;;;;;;;;;;;;;;;15.30;100.00;98624.66;5028746;28;19925;-40
2022/06/01 02:18:08;;;;;;;;;;;;;;;15.74;100.00;98617.84;5028070;28;20386;-40
2022/06/01 02:20:44;;;;;;;;;;;;;;;15.77;100.00;98623.69;5011522;28;19917;-40
2022/06/01 02:23:11;;;;;;;;;;;;;;;14.96;100.00;98621.41;5007898;28;19921;-40
2022/06/01 02:25:36;;;;;;;;;;;;;;;15.65;100.00;98616.59;5007882;28;19916;-40
2022/06/01 02:28:02;;;;;;;;;;;;;;;15.80;100.00;98613.09;5031569;28;19947;-40
2022/06/01 02:30:30;;;;;;;;;;;;;;;16.00;100.00;98613.69;5027113;28;20575;-40
2022/06/01 02:32:56;;;;;;;;;;;;;;;16.14;100.00;98611.06;5024338;28;19932;-40
2022/06/01 02:35:21;;;;;;;;;;;;;;;15.73;100.00;98616.16;5010582;28;19960;-40
2022/06/01 02:37:48;;;;;;;;;;;;;;;15.74;100.00;98610.91;5009873;28;19925;-40
2022/06/01 02:40:15;;;;;;;;;;;;;;;15.78;100.00;98612.38;5008834;28;19921;-40
2022/06/01 02:42:44;;;;;;;;;;;;;;;15.87;100.00;98608.38;5026157;28;19920;-40
2022/06/01 02:45:10;;;;;;;;;;;;;;;16.25;100.00;98613.84;5028072;28;19996;-40
2022/06/01 02:47:37;;;;;;;;;;;;;;;16.59;100.00;98611.75;5028433;28;19921;-40
2022/06/01 02:50:03;;;;;;;;;;;;;;;16.00;100.00;98614.50;5029052;28;19921;-40
2022/06/01 02:52:29;;;;;;;;;;;;;;;16.06;100.00;98615.91;5009147;28;19940;-40
2022/06/01 02:54:54;;;;;;;;;;;;;;;16.66;100.00;98625.22;5034556;28;19916;-40
2022/06/01 02:57:20;;;;;;;;;;;;;;;16.43;100.00;98626.66;5028061;28;19974;-40
2022/06/01 02:59:45;;;;;;;;;;;;;;;16.45;100.00;98624.78;5025789;28;19921;-40
2022/06/01 03:02:10;;;;;;;;;;;;;;;16.18;100.00;98628.16;5025746;28;20644;-40
2022/06/01 03:04:36;;;;;;;;;;;;;;;16.34;100.00;98629.81;5021802;28;19921;-40
2022/06/01 03:07:02;;;;;;;;;;;;;;;16.01;100.00;98625.72;5022561;28;19928;-40
2022/06/01 03:09:27;;;;;;;;;;;;;;;16.30;100.00;98621.38;5021204;28;19921;-40
2022/06/01 03:11:53;;;;;;;;;;;;;;;16.52;100.00;98618.28;5024553;28;20015;-40
2022/06/01 03:14:18;;;;;;;;;;;;;;;16.64;100.00;98622.69;5023667;28;20192;-40
2022/06/01 03:16:43;;;;;;;;;;;;;;;16.50;100.00;98633.13;5026605;28;19927;-40
2022/06/01 03:19:08;;;;;;;;;;;;;;;16.42;100.00;98631.03;5026738;28;19921;-39
2022/06/01 03:21:34;;;;;;;;;;;;;;;16.49;100.00;98626.28;5029810;28;19931;-40
2022/06/01 03:24:01;;;;;;;;;;;;;;;16.37;100.00;98635.66;5033578;28;19936;-40
2022/06/01 03:26:26;;;;;;;;;;;;;;;16.26;100.00;98631.13;5030121;28;20027;-39
2022/06/01 03:28:51;;;;;;;;;;;;;;;16.02;100.00;98630.00;5027485;28;20027;-40
2022/06/01 03:31:16;;;;;;;;;;;;;;;15.91;100.00;98637.63;5033329;28;19978;-40
2022/06/01 03:33:42;;;;;;;;;;;;;;;15.42;100.00;98639.53;5028625;28;19944;-40
2022/06/01 03:36:09;;;;;;;;;;;;;;;15.74;100.00;98638.63;5032603;28;19916;-40
2022/06/01 03:38:34;;;;;;;;;;;;;;;16.15;100.00;98627.50;5029478;28;19991;-40
2022/06/01 03:40:59;;;;;;;;;;;;;;;16.35;100.00;98631.47;5030794;28;19924;-40
2022/06/01 03:43:25;;;;;;;;;;;;;;;16.17;100.00;98639.50;5030687;28;19921;-40
2022/06/01 03:45:56;;;;;;;;;;;;;;;16.36;100.00;98641.78;5031308;28;20030;-40
2022/06/01 03:48:31;;;;;;;;;;;;;;;16.06;100.00;98628.91;5032605;28;20000;-39
2022/06/01 03:50:56;;;;;;;;;;;;;;;16.14;100.00;98631.84;5035036;28;19921;-39
2022/06/01 03:53:23;;;;;;;;;;;;;;;16.40;100.00;98637.22;5030972;28;19924;-40
2022/06/01 03:55:48;;;;;;;;;;;;;;;16.23;100.00;98636.50;5031888;28;19920;-40
2022/06/01 03:58:18;;;;;;;;;;;;;;;16.51;100.00;98652.97;5032899;28;20358;-40
2022/06/01 04:00:43;;;;;;;;;;;;;;;16.61;100.00;98643.69;5030701;28;20433;-40
2022/06/01 04:03:09;;;;;;;;;;;;;;;16.20;100.00;98641.06;5028567;28;19924;-40
2022/06/01 04:05:34;;;;;;;;;;;;;;;16.48;100.00;98638.41;5031717;28;19995;-40
2022/06/01 04:07:59;;;;;;;;;;;;;;;16.71;100.00;98646.56;5032046;28;19921;-40
2022/06/01 04:10:24;;;;;;;;;;;;;;;16.70;100.00;98644.91;5029618;28;19916;-40
2022/06/01 04:12:50;;;;;;;;;;;;;;;16.65;100.00;98658.19;5031480;28;19928;-40
2022/06/01 04:15:15;;;;;;;;;;;;;;;16.83;100.00;98660.56;5031327;28;19932;-40
2022/06/01 04:17:40;;;;;;;;;;;;;;;16.76;100.00;98670.50;5033026;28;19987;-40
2022/06/01 04:20:06;;;;;;;;;;;;;;;16.72;100.00;98658.63;5033429;28;19920;-40
2022/06/01 04:22:32;;;;;;;;;;;;;;;17.09;100.00;98661.53;5033106;28;20485;-39
2022/06/01 04:24:57;;;;;;;;;;;;;;;16.58;100.00;98664.69;5034277;28;19975;-40
2022/06/01 04:27:22;;;;;;;;;;;;;;;17.31;100.00;98663.56;5036684;28;20013;-40
2022/06/01 04:29:47;;;;;;;;;;;;;;;17.38;100.00;98664.00;5033030;28;19924;-40
2022/06/01 04:32:13;;;;;;;;;;;;;;;17.58;100.00;98662.69;5031855;28;20537;-40
2022/06/01 04:34:38;;;;;;;;;;;;;;;17.48;100.00;98659.88;5015666;28;20381;-40
2022/06/01 04:37:04;;;;;;;;;;;;;;;17.42;100.00;98655.88;5029739;28;19920;-39
2022/06/01 04:39:29;;;;;;;;;;;;;;;17.42;100.00;98660.25;5031233;28;20011;-39
2022/06/01 04:41:55;;;;;;;;;;;;;;;17.38;100.00;98657.06;5025809;28;19951;-39
2022/06/01 04:44:20;;;;;;;;;;;;;;;17.48;100.00;98662.47;5010280;28;19944;-39
2022/06/01 04:46:45;;;;;;;;;;;;;;;17.91;100.00;98664.88;5028152;28;20298;-39
2022/06/01 04:49:11;;;;;;;;;;;;;;;17.76;100.00;98662.31;5029258;28;19943;-40
2022/06/01 04:51:36;;;;;;;;;;;;;;;17.28;100.00;98666.38;5031251;28;19928;-39
2022/06/01 04:54:02;;;;;;;;;;;;;;;17.84;100.00;98661.00;5028185;28;19928;-40
2022/06/01 04:56:27;;;;;;;;;;;;;;;18.15;100.00;98663.19;5029170;28;19968;-40
2022/06/01 04:58:52;;;;;;;;;;;;;;;18.26;100.00;98659.84;5027040;28;19928;-40
2022/06/01 05:01:17;;;;;;;;;;;;;;;18.48;100.00;98663.56;5028425;28;19921;-39
2022/06/01 05:03:43;;;;;;;;;;;;;;;18.14;100.00;98660.69;5030080;28;20297;-39
2022/06/01 05:06:08;;;;;;;;;;;;;;;18.81;100.00;98660.38;5028074;28;20039;-40
2022/06/01 05:08:33;;;;;;;;;;;;;;;18.14;100.00;98671.13;5032999;28;20006;-40
2022/06/01 05:10:58;;;;;;;;;;;;;;;17.83;100.00;98667.97;5032747;28;19924;-40
2022/06/01 05:13:24;;;;;;;;;;;;;;;18.12;100.00;98668.59;5030403;28;19921;-40
2022/06/01 05:15:50;;;;;;;;;;;;;;;17.37;100.00;98670.16;5011517;28;20466;-40
2022/06/01 05:18:15;;;;;;;;;;;;;;;17.53;100.00;98673.41;5033335;28;19921;-39
2022/06/01 05:20:40;;;;;;;;;;;;;;;18.90;100.00;98661.50;5031568;28;19986;-40
2022/06/01 05:23:06;;;;;;;;;;;;;;;18.99;100.00;98674.72;5029656;28;20305;-40
2022/06/01 05:25:31;;;;;;;;;;;;;;;18.59;100.00;98671.47;5032221;28;19924;-40
2022/06/01 05:27:56;;;;;;;;;;;;;;;18.81;100.00;98666.41;5013639;28;20027;-39
2022/06/01 05:30:21;;;;;;;;;;;;;;;18.91;100.00;98668.41;5031433;28;19967;-40
2022/06/01 05:32:47;;;;;;;;;;;;;;;19.02;100.00;98668.44;5029233;28;20019;-40
2022/06/01 05:35:12;;;;;;;;;;;;;;;19.07;100.00;98666.34;5030883;28;20093;-39
2022/06/01 05:37:37;;;;;;;;;;;;;;;18.69;100.00;98672.50;5017066;28;19917;-39
2022/06/01 05:40:03;;;;;;;;;;;;;;;19.02;100.00;98665.81;5028153;28;19925;-39
2022/06/01 05:42:28;;;;;;;;;;;;;;;19.10;100.00;98673.94;5029763;28;19923;-39
2022/06/01 05:44:53;;;;;;;;;;;;;;;19.01;100.00;98669.38;5013275;28;20339;-39
2022/06/01 05:47:18;;;;;;;;;;;;;;;18.94;100.00;98676.00;5031135;28;19925;-39
2022/06/01 05:49:44;;;;;;;;;;;;;;;18.75;100.00;98674.66;5031088;28;19921;-39
2022/06/01 05:52:09;;;;;;;;;;;;;;;18.77;100.00;98680.66;5028689;28;19927;-40
2022/06/01 05:54:34;;;;;;;;;;;;;;;17.49;100.00;98701.44;5031346;28;19928;-39
2022/06/01 05:56:59;;;;;;;;;;;;;;;18.48;100.00;98694.88;5030570;28;20056;-39
2022/06/01 05:59:24;;;;;;;;;;;;;;;18.96;100.00;98697.59;5029920;28;19960;-39
2022/06/01 06:01:50;;;;;;;;;;;;;;;18.40;100.00;98682.34;5017297;28;19928;-39
2022/06/01 06:04:15;;;;;;;;;;;;;;;18.93;100.00;98685.59;5032416;28;20889;-39
2022/06/01 06:06:40;;;;;;;;;;;;;;;18.56;100.00;98692.53;5026921;28;20382;-39
2022/06/01 06:09:06;;;;;;;;;;;;;;;18.45;100.00;98684.63;5029362;28;19917;-39
2022/06/01 06:11:33;;;;;;;;;;;;;;;19.35;100.00;98685.22;5034927;28;19930;-39
2022/06/01 06:13:58;;;;;;;;;;;;;;;19.07;100.00;98686.38;5035321;28;20386;-39
2022/06/01 06:16:24;;;;;;;;;;;;;;;19.72;100.00;98690.38;5033170;28;19971;-39
2022/06/01 06:18:50;;;;;;;;;;;;;;;19.57;100.00;98693.16;5012275;28;19928;-39
2022/06/01 06:21:16;;;;;;;;;;;;;;;19.49;100.00;98695.47;5026349;28;20020;-39
2022/06/01 06:23:41;;;;;;;;;;;;;;;20.06;100.00;98691.25;5028052;28;19927;-39
2022/06/01 06:26:07;;;;;;;;;;;;;;;19.84;100.00;98692.03;4994955;28;19921;-39
2022/06/01 06:28:32;;;;;;;;;;;;;;;19.07;100.00;98697.66;5013629;28;19959;-39
2022/06/01 06:30:57;;;;;;;;;;;;;;;19.23;100.00;98697.41;5033970;28;20024;-39
2022/06/01 06:33:23;;;;;;;;;;;;;;;19.91;100.00;98697.66;5034613;28;20017;-39
2022/06/01 06:35:55;;;;;;;;;;;;;;;18.91;100.00;98708.38;5011546;28;19996;-39
2022/06/01 06:38:20;;;;;;;;;;;;;;;20.03;100.00;98712.41;5028431;28;19920;-39
2022/06/01 06:40:45;;;;;;;;;;;;;;;21.01;100.00;98690.91;5028656;28;19921;-39
2022/06/01 06:43:11;;;;;;;;;;;;;;;20.82;100.00;98695.00;5029319;28;20800;-39
2022/06/01 06:45:36;;;;;;;;;;;;;;;20.51;100.00;98703.56;5038462;28;19944;-39
2022/06/01 06:48:01;;;;;;;;;;;;;;;20.23;100.00;98697.81;5036884;28;19920;-39
2022/06/01 06:50:26;;;;;;;;;;;;;;;21.18;100.00;98692.97;5039166;28;19975;-39
2022/06/01 06:52:52;;;;;;;;;;;;;;;21.42;100.00;98692.81;5030728;28;19924;-39
2022/06/01 06:55:17;;;;;;;;;;;;;;;21.39;98.95;98694.81;5031243;28;19981;-39
2022/06/01 06:57:43;;;;;;;;;;;;;;;21.37;95.40;98694.97;5028611;28;19921;-39
2022/06/01 07:00:09;;;;;;;;;;;;;;;20.95;98.57;98699.25;5018182;28;19924;-39
2022/06/01 07:02:35;;;;;;;;;;;;;;;21.42;94.44;98697.25;5020399;28;20374;-39
2022/06/01 07:05:01;;;;;;;;;;;;;;;21.29;95.74;98695.56;5029925;28;20409;-39
2022/06/01 07:07:26;;;;;;;;;;;;;;;21.22;93.09;98702.25;5037994;28;19921;-39
2022/06/01 07:09:51;;;;;;;;;;;;;;;20.20;100.00;98711.94;5039184;28;19921;-39
2022/06/01 07:12:16;;;;;;;;;;;;;;;21.83;96.59;98704.31;5033207;28;19936;-39
2022/06/01 07:14:41;;;;;;;;;;;;;;;21.90;95.90;98707.25;5027115;28;19917;-39
2022/06/01 07:17:07;;;;;;;;;;;;;;;21.84;94.69;98713.81;5028770;28;19932;-40
2022/06/01 07:19:33;;;;;;;;;;;;;;;21.21;99.05;98713.72;5026456;28;19921;-39
2022/06/01 07:21:58;;;;;;;;;;;;;;;21.19;96.63;98710.38;5029082;28;20847;-39
2022/06/01 07:24:23;;;;;;;;;;;;;;;22.21;93.07;98702.03;5028467;28;19972;-39
2022/06/01 07:26:48;;;;;;;;;;;;;;;21.38;98.33;98716.75;5029125;28;19968;-39
2022/06/01 07:29:15;;;;;;;;;;;;;;;20.39;100.00;98724.47;5010122;28;19979;-39
2022/06/01 07:31:40;;;;;;;;;;;;;;;19.07;100.00;98729.00;5016993;28;20516;-39
2022/06/01 07:34:05;;;;;;;;;;;;;;;18.88;100.00;98728.59;5031450;28;19924;-39
2022/06/01 07:36:31;;;;;;;;;;;;;;;17.68;100.00;98741.91;5033532;28;19924;-39
2022/06/01 07:44:29;;;;;;;;;;;;;;;18.57;100.00;98733.34;5018800;28;19959;-39
2022/06/01 07:46:54;;;;;;;;;;;;;;;19.87;100.00;98719.75;5031932;28;19939;-39
2022/06/01 07:49:19;;;;;;;;;;;;;;;20.72;100.00;98717.59;5032693;28;19917;-39
2022/06/01 07:51:45;;;;;;;;;;;;;;;19.63;100.00;98721.41;5034050;28;20010;-39
2022/06/01 07:54:10;;;;;;;;;;;;;;;20.51;100.00;98721.88;5013451;28;20003;-39
2022/06/01 07:56:35;;;;;;;;;;;;;;;21.47;100.00;98716.03;5032496;28;19921;-39
2022/06/01 07:59:03;;;;;;;;;;;;;;;21.10;100.00;98717.19;5028490;28;19932;-38
2022/06/01 08:01:29;;;;;;;;;;;;;;;19.02;100.00;98736.28;5014468;28;20424;-39
2022/06/01 08:03:56;;;;;;;;;;;;;;;19.60;100.00;98726.03;5029489;28;19948;-39
2022/06/01 08:06:22;;;;;;;;;;;;;;;18.56;100.00;98735.09;5032923;28;20017;-39
2022/06/01 08:08:47;;;;;;;;;;;;;;;19.81;100.00;98721.03;5033897;28;19925;-38
2022/06/01 08:11:12;;;;;;;;;;;;;;;18.43;100.00;98733.44;5033566;28;19920;-39
2022/06/01 08:13:37;;;;;;;;;;;;;;;20.12;100.00;98721.34;5030326;28;19929;-39
2022/06/01 08:16:03;;;;;;;;;;;;;;;20.90;100.00;98712.69;5031491;28;19932;-39
2022/06/01 08:18:28;;;;;;;;;;;;;;;21.16;99.63;98713.22;5038284;28;19921;-39
2022/06/01 08:20:54;;;;;;;;;;;;;;;20.70;100.00;98719.50;5020691;28;19928;-39
2022/06/01 08:23:20;;;;;;;;;;;;;;;21.84;100.00;98713.00;5030660;28;19925;-39
2022/06/01 08:25:46;;;;;;;;;;;;;;;20.05;100.00;98732.25;5032336;28;19975;-39
2022/06/01 08:28:11;;;;;;;;;;;;;;;19.85;100.00;98730.31;5030450;28;19917;-38
2022/06/01 08:30:37;;;;;;;;;;;;;;;20.93;98.76;98722.09;5031438;28;19925;-39
2022/06/01 08:33:03;;;;;;;;;;;;;;;22.22;89.42;98722.09;5032759;28;19932;-39
2022/06/01 08:35:33;;;;;;;;;;;;;;;21.87;90.62;98724.06;5032144;28;19921;-39
2022/06/01 08:37:58;;;;;;;;;;;;;;;22.67;94.08;98711.22;5013379;28;19921;-39
2022/06/01 08:40:31;;;;;;;;;;;;;;;20.89;97.69;98732.81;5032172;28;19963;-39
2022/06/01 08:42:59;;;;;;;;;;;;;;;22.92;93.33;98716.03;5030225;28;19921;-39
2022/06/01 08:45:24;;;;;;;;;;;;;;;22.27;89.07;98715.47;5011428;28;20087;-39
2022/06/01 08:47:50;;;;;;;;;;;;;;;23.29;88.39;98712.78;5030302;28;20997;-39
2022/06/01 08:50:23;;;;;;;;;;;;;;;21.72;86.37;98722.72;5008842;28;20712;-39
2022/06/01 08:52:48;;;;;;;;;;;;;;;21.98;88.67;98720.53;5014622;28;19932;-39
2022/06/01 08:55:16;;;;;;;;;;;;;;;22.44;82.77;98721.09;5019016;28;20311;-39
2022/06/01 08:57:45;;;;;;;;;;;;;;;21.89;85.74;98729.16;5014705;28;19939;-39
2022/06/01 09:00:12;;;;;;;;;;;;;;;22.83;88.98;98727.31;5010858;28;19917;-39
2022/06/01 09:02:40;;;;;;;;;;;;;;;21.71;92.24;98734.13;5012829;28;19948;-39
2022/06/01 09:05:28;;;;;;;;;;;;;;;23.54;83.91;98721.94;5032071;28;19920;-39
2022/06/01 09:07:56;;;;;;;;;;;;;;;24.04;78.35;98720.94;4992807;28;19928;-38
2022/06/01 09:10:40;;;;;;;;;;;;;;;20.70;87.49;98737.81;5013096;28;19917;-39
2022/06/01 09:13:23;;;;;;;;;;;;;;;20.81;94.45;98735.19;5029110;28;19979;-39
2022/06/01 09:16:18;;;;;;;;;;;;;;;20.03;97.17;98734.16;5035750;28;20410;-39
2022/06/01 09:18:49;;;;;;;;;;;;;;;20.87;94.89;98724.25;5021242;28;19921;-39
2022/06/01 09:24:05;;;;;;;;;;;;;;;23.88;84.68;98723.31;5031759;28;20001;-39
2022/06/01 09:26:30;;;;;;;;;;;;;;;23.32;80.08;98733.53;5010473;28;19921;-39
2022/06/01 09:28:57;;;;;;;;;;;;;;;23.45;74.55;98721.94;5029791;28;19917;-39
2022/06/01 09:31:40;;;;;;;;;;;;;;;23.83;74.27;98733.44;5030271;28;19921;-39
2022/06/01 09:34:14;;;;;;;;;;;;;;;24.63;72.94;98727.72;5013684;28;19921;-39
2022/06/01 09:36:47;;;;;;;;;;;;;;;22.95;75.72;98728.88;5032524;28;20059;-39
2022/06/01 09:39:14;;;;;;;;;;;;;;;20.51;86.35;98745.41;5014632;28;19916;-38
2022/06/01 09:41:40;;;;;;;;;;;;;;;21.27;84.06;98744.63;5008943;28;19929;-38
2022/06/01 09:44:10;;;;;;;;;;;;;;;21.39;84.61;98745.41;5030196;28;19920;-38
2022/06/01 09:46:48;;;;;;;;;;;;;;;23.12;83.19;98743.16;5017177;28;19925;-38
2022/06/01 09:49:21;;;;;;;;;;;;;;;24.58;79.13;98735.19;5011983;28;20662;-38
2022/06/01 09:51:46;;;;;;;;;;;;;;;25.39;71.04;98720.50;5008865;28;19922;-38
2022/06/01 09:54:13;;;;;;;;;;;;;;;25.20;71.40;98726.72;5011121;28;19928;-38
2022/06/01 09:56:47;;;;;;;;;;;;;;;22.12;80.00;98732.47;5030389;28;19927;-38
2022/06/01 10:08:19;;;;;;;;;;;;;;;24.17;81.92;98718.81;5030485;28;20298;-38
2022/06/01 10:11:04;;;;;;;;;;;;;;;23.89;81.24;98715.28;5009585;28;20104;-38
2022/06/01 10:13:33;;;;;;;;;;;;;;;21.65;80.83;98727.63;5028261;28;19974;-39
2022/06/01 10:16:00;;;;;;;;;;;;;;;23.47;75.99;98719.97;5009018;28;19917;-38
2022/06/01 10:18:27;;;;;;;;;;;;;;;23.95;77.87;98709.47;5009033;28;19923;-38
2022/06/01 10:20:55;;;;;;;;;;;;;;;23.44;79.25;98707.94;5014657;28;19920;-38
2022/06/01 10:23:24;;;;;;;;;;;;;;;24.95;72.02;98707.16;5013314;28;20313;-38
2022/06/01 10:25:52;;;;;;;;;;;;;;;25.54;65.94;98707.59;5028954;28;20419;-39
2022/06/01 10:28:19;;;;;;;;;;;;;;;25.32;65.25;98709.72;5033656;28;19920;-38
2022/06/01 10:30:52;;;;;;;;;;;;;;;24.67;71.58;98708.97;4996618;28;20498;-38
2022/06/01 10:33:19;;;;;;;;;;;;;;;24.75;72.19;98704.66;5012427;28;19925;-39
2022/06/01 10:35:45;;;;;;;;;;;;;;;24.23;73.32;98701.66;5012094;28;19917;-38
2022/06/01 10:38:12;;;;;;;;;;;;;;;25.84;68.12;98698.44;5033303;28;19917;-38
2022/06/01 10:40:43;;;;;;;;;;;;;;;24.16;70.23;98711.91;5000200;28;19921;-39
2022/06/01 10:43:17;;;;;;;;;;;;;;;24.31;71.80;98703.53;5017316;28;19932;-39
2022/06/01 10:45:45;;;;;;;;;;;;;;;24.19;65.78;98719.50;5021022;28;19917;-38
2022/06/01 10:48:10;;;;;;;;;;;;;;;26.57;60.29;98710.47;5017876;28;19943;-38
2022/06/01 10:50:39;;;;;;;;;;;;;;;25.67;69.19;98724.69;5039218;28;19921;-39
2022/06/01 10:53:06;;;;;;;;;;;;;;;23.59;75.44;98727.59;5015352;28;20310;-38
2022/06/01 10:55:33;;;;;;;;;;;;;;;22.97;77.79;98720.88;5010655;28;19921;-39
2022/06/01 10:57:59;;;;;;;;;;;;;;;24.77;69.02;98709.75;5012662;28;20051;-38
2022/06/01 11:00:36;;;;;;;;;;;;;;;25.00;58.55;98708.38;5012875;28;19916;-38
2022/06/01 11:03:21;;;;;;;;;;;;;;;23.30;65.57;98709.19;5013942;28;20459;-38
2022/06/01 11:05:59;;;;;;;;;;;;;;;24.45;74.25;98725.94;5013160;28;19917;-38
2022/06/01 11:08:30;;;;;;;;;;;;;;;22.80;79.95;98727.56;5030946;28;19987;-38
2022/06/01 11:11:04;;;;;;;;;;;;;;;22.36;84.22;98737.50;5030362;28;20011;-38
2022/06/01 11:13:48;;;;;;;;;;;;;;;23.57;79.81;98721.66;5016449;28;19925;-38
2022/06/01 11:16:13;;;;;;;;;;;;;;;24.30;71.32;98729.03;5036107;28;19917;-38
2022/06/01 11:18:44;;;;;;;;;;;;;;;23.86;67.87;98726.09;5031853;28;20370;-39
2022/06/01 11:21:22;;;;;;;;;;;;;;;22.96;68.21;98732.31;5032284;28;20440;-39
2022/06/01 11:24:03;;;;;;;;;;;;;;;24.51;69.36;98726.22;5034018;28;19924;-39
2022/06/01 11:26:28;;;;;;;;;;;;;;;23.55;64.17;98730.63;5029581;28;19917;-38
2022/06/01 11:29:11;;;;;;;;;;;;;;;22.46;77.16;98734.91;5031913;28;19923;-39
2022/06/01 11:31:36;;;;;;;;;;;;;;;23.00;73.94;98738.19;5017398;28;19916;-39
2022/06/01 11:34:14;;;;;;;;;;;;;;;22.45;76.78;98744.56;5020480;28;19932;-39
2022/06/01 11:37:00;;;;;;;;;;;;;;;22.96;72.61;98735.78;5016854;28;19921;-38
2022/06/01 11:39:34;;;;;;;;;;;;;;;24.52;69.96;98727.91;5037595;28;19938;-38
2022/06/01 11:42:26;;;;;;;;;;;;;;;23.29;70.75;98731.19;5032932;28;19996;-39
2022/06/01 11:45:10;;;;;;;;;;;;;;;22.42;75.77;98736.13;5004659;28;19924;-39
2022/06/01 11:47:50;;;;;;;;;;;;;;;24.68;70.62;98721.16;5015981;28;19958;-38
2022/06/01 11:50:15;;;;;;;;;;;;;;;27.17;62.00;98723.56;5035860;28;20399;-39
2022/06/01 11:52:44;;;;;;;;;;;;;;;27.83;54.54;98713.88;5035624;28;19920;-39
2022/06/01 11:55:15;;;;;;;;;;;;;;;28.25;50.84;98720.78;5037417;28;19931;-39
2022/06/01 11:57:46;;;;;;;;;;;;;;;26.14;52.66;98725.38;5037278;28;19917;-39
2022/06/01 12:00:16;;;;;;;;;;;;;;;26.36;50.14;98718.75;5033850;28;19986;-38
2022/06/01 12:02:42;;;;;;;;;;;;;;;25.99;51.28;98719.84;5032270;28;19917;-39
2022/06/01 12:05:08;;;;;;;;;;;;;;;24.11;60.71;98729.94;5030346;28;19939;-39
2022/06/01 12:07:39;;;;;;;;;;;;;;;24.88;54.63;98717.44;5032482;28;19916;-38
2022/06/01 12:10:18;;;;;;;;;;;;;;;25.08;56.35;98719.97;5021335;28;19921;-38
2022/06/01 12:12:46;;;;;;;;;;;;;;;22.71;60.59;98723.13;5031544;28;19931;-38
2022/06/01 12:15:18;;;;;;;;;;;;;;;23.87;65.54;98721.66;5032111;28;19924;-38
2022/06/01 12:17:59;;;;;;;;;;;;;;;24.45;66.20;98716.25;5032474;28;19921;-38
2022/06/01 12:20:34;;;;;;;;;;;;;;;23.80;69.34;98722.22;5011368;28;19924;-39
2022/06/01 12:28:52;;;;;;;;;;;;;;;26.08;62.18;98711.00;5032849;28;20510;-38
2022/06/01 12:31:19;;;;;;;;;;;;;;;26.39;62.05;98708.72;5014951;28;20003;-39
2022/06/01 12:34:04;;;;;;;;;;;;;;;24.88;54.83;98712.19;5015035;28;19925;-39
2022/06/01 12:36:31;;;;;;;;;;;;;;;26.87;48.87;98702.00;5020915;28;19927;-38
2022/06/01 12:38:56;;;;;;;;;;;;;;;28.62;47.08;98692.88;5037398;28;19917;-39
2022/06/01 12:41:21;;;;;;;;;;;;;;;27.06;54.86;98711.47;5034790;28;20285;-39
2022/06/01 12:43:51;;;;;;;;;;;;;;;26.05;48.55;98706.88;5015442;28;20678;-38
2022/06/01 12:46:30;;;;;;;;;;;;;;;27.05;48.65;98699.25;5017240;28;19971;-38
2022/06/01 12:49:19;;;;;;;;;;;;;;;27.22;45.91;98694.03;5032856;28;20570;-38
2022/06/01 12:51:44;;;;;;;;;;;;;;;26.63;48.72;98699.28;5020477;28;19925;-38
2022/06/01 12:54:09;;;;;;;;;;;;;;;26.27;49.63;98710.81;5030145;28;20062;-38
2022/06/01 12:56:37;;;;;;;;;;;;;;;26.98;48.96;98692.97;5035687;28;19982;-38
2022/06/01 12:59:07;;;;;;;;;;;;;;;26.54;48.64;98700.19;5016684;28;20013;-38
2022/06/01 13:01:32;;;;;;;;;;;;;;;25.90;46.45;98708.41;5001646;28;19921;-38
2022/06/01 13:03:58;;;;;;;;;;;;;;;25.10;45.02;98696.94;5029967;28;20413;-38
2022/06/01 13:06:24;;;;;;;;;;;;;;;26.36;47.92;98702.91;5015405;28;19917;-38
2022/06/01 13:08:59;;;;;;;;;;;;;;;25.82;48.25;98711.81;5019023;28;19947;-38
2022/06/01 13:11:26;;;;;;;;;;;;;;;23.46;58.11;98719.16;5014506;28;19996;-38
2022/06/01 13:13:51;;;;;;;;;;;;;;;24.86;53.70;98708.03;5010223;28;19952;-38
2022/06/01 13:16:18;;;;;;;;;;;;;;;23.40;58.80;98724.97;5030983;28;20000;-38